Time;durP1;ratioP1;P1;durP2;ratioP2;P2;SDS_P1;SDS_P2;PMS_P1;PMS_P2;Temp;Humidity;BMP_temperature;BMP_pressure;BME280_temperature;BME280_humidity;BME280_pressure;Samples;Min_cycle;Max_cycle;Signal;HPM_P1;HPM_P2
2024/03/01 00:00:09;;;;;;;30.65;19.00;;;;;;;0.64;79.50;99428.13;2484763;29;20379;-81
2024/03/01 00:01:23;;;;;;;27.65;20.52;;;;;;;0.63;79.56;99428.97;2493827;29;20134;-82
2024/03/01 00:02:37;;;;;;;31.35;20.30;;;;;;;0.63;79.56;99421.28;2493696;28;20509;-81
2024/03/01 00:03:51;;;;;;;33.97;20.58;;;;;;;0.62;79.61;99422.09;2486401;28;20099;-83
2024/03/01 00:05:06;;;;;;;34.83;21.33;;;;;;;0.61;79.92;99422.97;2484112;29;20091;-81
2024/03/01 00:06:20;;;;;;;29.60;21.35;;;;;;;0.62;79.84;99429.81;2490865;29;20155;-81
2024/03/01 00:07:34;;;;;;;27.27;20.15;;;;;;;0.61;79.64;99433.22;2483555;29;20670;-82
2024/03/01 00:08:48;;;;;;;28.95;19.02;;;;;;;0.60;80.00;99432.38;2490070;29;20516;-82
2024/03/01 00:10:02;;;;;;;27.17;19.02;;;;;;;0.61;80.04;99423.81;2484832;29;20056;-82
2024/03/01 00:11:16;;;;;;;25.42;17.88;;;;;;;0.62;79.65;99435.81;2483188;29;20070;-83
2024/03/01 00:12:30;;;;;;;26.98;18.52;;;;;;;0.65;79.87;99429.88;2483856;29;20122;-85
2024/03/01 00:13:44;;;;;;;27.35;18.50;;;;;;;0.69;79.96;99430.75;2483760;29;20490;-83
2024/03/01 00:14:58;;;;;;;26.23;19.92;;;;;;;0.72;80.03;99421.38;2483082;29;20307;-83
2024/03/01 00:16:13;;;;;;;34.20;21.92;;;;;;;0.77;80.06;99424.84;2483710;29;20065;-85
2024/03/01 00:17:27;;;;;;;28.63;19.10;;;;;;;0.82;79.94;99423.19;2487068;29;20122;-83
2024/03/01 00:18:42;;;;;;;29.17;20.38;;;;;;;0.87;80.08;99412.97;2488127;29;20051;-84
2024/03/01 00:19:57;;;;;;;33.00;21.90;;;;;;;0.91;79.96;99424.16;2490452;29;20412;-85
2024/03/01 00:21:13;;;;;;;36.03;22.15;;;;;;;0.93;79.86;99418.19;2484148;29;20048;-83
2024/03/01 00:22:28;;;;;;;34.03;21.40;;;;;;;0.95;79.81;99419.03;2487344;29;20043;-83
2024/03/01 00:23:41;;;;;;;34.03;23.58;;;;;;;0.95;79.93;99428.47;2487499;28;20248;-84
2024/03/01 00:24:56;;;;;;;29.92;21.75;;;;;;;0.95;79.75;99433.59;2483636;29;20048;-84
2024/03/01 00:26:09;;;;;;;27.83;20.63;;;;;;;0.93;79.58;99425.91;2483481;29;20489;-83
2024/03/01 00:27:24;;;;;;;31.25;20.05;;;;;;;0.93;79.85;99430.16;2487287;29;20042;-80
2024/03/01 00:28:37;;;;;;;30.00;19.27;;;;;;;0.94;79.51;99435.31;2499882;28;20031;-81
2024/03/01 00:29:52;;;;;;;28.80;22.25;;;;;;;0.95;79.46;99433.59;2504743;28;20073;-81
2024/03/01 00:31:06;;;;;;;36.97;21.42;;;;;;;0.95;79.34;99438.75;2491374;29;20107;-84
2024/03/01 00:32:22;;;;;;;30.45;20.30;;;;;;;0.95;79.41;99431.88;2483728;29;20473;-84
2024/03/01 00:33:35;;;;;;;33.33;22.67;;;;;;;0.98;79.76;99428.50;2489270;29;20070;-85
2024/03/01 00:34:50;;;;;;;33.20;22.73;;;;;;;1.01;79.57;99433.69;2493758;28;20130;-84
2024/03/01 00:36:04;;;;;;;31.55;21.23;;;;;;;1.04;79.41;99428.56;2485888;28;20047;-86
2024/03/01 00:37:18;;;;;;;32.20;21.75;;;;;;;1.08;79.71;99425.16;2485913;29;20619;-85
2024/03/01 00:38:32;;;;;;;31.60;22.65;;;;;;;1.11;79.53;99420.09;2490513;28;20051;-83
2024/03/01 00:39:46;;;;;;;35.58;19.63;;;;;;;1.14;79.93;99419.25;2484155;29;20058;-86
2024/03/01 00:41:00;;;;;;;31.45;22.80;;;;;;;1.15;79.78;99408.97;2484525;29;20051;-85
2024/03/01 00:42:15;;;;;;;32.83;22.85;;;;;;;1.19;79.77;99422.69;2494347;29;20090;-84
2024/03/01 00:43:28;;;;;;;30.33;19.95;;;;;;;1.21;79.62;99410.72;2499680;28;20043;-84
2024/03/01 00:44:42;;;;;;;28.92;19.77;;;;;;;1.23;79.43;99414.19;2487006;29;20075;-85
2024/03/01 00:45:56;;;;;;;41.40;22.02;;;;;;;1.25;79.36;99417.63;2483886;29;20488;-84
2024/03/01 00:47:10;;;;;;;32.50;23.38;;;;;;;1.25;79.33;99413.34;2482443;29;20052;-84
2024/03/01 00:48:25;;;;;;;31.20;20.63;;;;;;;1.25;79.29;99415.06;2483391;29;20059;-84
2024/03/01 00:49:40;;;;;;;30.15;20.70;;;;;;;1.24;79.27;99411.63;2483705;29;20052;-82
2024/03/01 00:50:53;;;;;;;29.13;19.83;;;;;;;1.25;79.65;99413.34;2484077;29;20051;-85
2024/03/01 00:52:08;;;;;;;25.38;20.25;;;;;;;1.26;79.25;99411.63;2491561;29;20055;-84
2024/03/01 00:53:22;;;;;;;32.58;21.25;;;;;;;1.26;79.49;99409.91;2483868;29;20138;-84
2024/03/01 00:54:36;;;;;;;34.08;21.08;;;;;;;1.28;79.77;99415.09;2484329;29;20052;-84
2024/03/01 00:55:50;;;;;;;27.67;20.88;;;;;;;1.30;79.56;99419.41;2484614;29;20410;-85
2024/03/01 00:57:04;;;;;;;35.17;21.98;;;;;;;1.34;79.58;99407.41;2485618;29;20062;-84
2024/03/01 00:58:18;;;;;;;34.13;21.88;;;;;;;1.36;79.73;99410.00;2486689;29;20051;-85
2024/03/01 00:59:33;;;;;;;31.75;21.13;;;;;;;1.38;79.61;99414.31;2485942;29;20500;-86
2024/03/01 01:00:47;;;;;;;33.95;22.17;;;;;;;1.41;79.64;99410.91;2487141;29;20056;-86
2024/03/01 01:02:01;;;;;;;26.00;18.77;;;;;;;1.40;79.52;99414.34;2495071;29;20062;-84
2024/03/01 01:03:14;;;;;;;26.60;20.52;;;;;;;1.39;79.29;99416.03;2494378;28;20039;-84
2024/03/01 01:04:30;;;;;;;31.50;20.05;;;;;;;1.38;79.46;99408.31;2490964;29;20504;-86
2024/03/01 01:05:44;;;;;;;30.73;20.33;;;;;;;1.36;79.35;99410.88;2497709;29;20051;-84
2024/03/01 01:06:58;;;;;;;26.25;19.27;;;;;;;1.36;79.44;99416.00;2496537;28;20058;-84
2024/03/01 01:08:11;;;;;;;25.92;19.02;;;;;;;1.37;79.58;99412.63;2487601;29;20052;-86
2024/03/01 01:09:26;;;;;;;26.30;19.67;;;;;;;1.39;79.43;99416.03;2486928;29;20136;-84
2024/03/01 01:10:39;;;;;;;38.13;22.08;;;;;;;1.43;79.47;99409.22;2486962;29;20051;-85
2024/03/01 01:11:54;;;;;;;31.90;22.63;;;;;;;1.46;79.57;99409.25;2492755;29;20122;-84
2024/03/01 01:13:07;;;;;;;33.70;21.33;;;;;;;1.48;79.54;99404.97;2488294;29;20087;-84
2024/03/01 01:14:22;;;;;;;31.20;19.63;;;;;;;1.50;79.17;99405.88;2493969;28;20146;-83
2024/03/01 01:15:35;;;;;;;31.08;20.75;;;;;;;1.52;79.39;99407.59;2485982;29;20043;-84
2024/03/01 01:16:50;;;;;;;27.90;21.23;;;;;;;1.54;79.58;99405.00;2486411;29;20047;-85
2024/03/01 01:18:04;;;;;;;32.70;19.30;;;;;;;1.55;79.62;99401.63;2494461;29;20051;-83
2024/03/01 01:19:18;;;;;;;30.60;20.13;;;;;;;1.59;79.55;99408.50;2478439;29;20044;-83
2024/03/01 01:20:33;;;;;;;31.15;21.48;;;;;;;1.61;79.44;99406.78;2486690;29;20066;-83
2024/03/01 01:21:47;;;;;;;25.00;19.33;;;;;;;1.64;79.58;99401.66;2486675;29;20503;-86
2024/03/01 01:23:01;;;;;;;27.10;20.55;;;;;;;1.68;79.40;99402.56;2485801;29;20063;-87
2024/03/01 01:24:15;;;;;;;25.02;18.38;;;;;;;1.69;79.57;99397.41;2495735;29;20047;-86
2024/03/01 01:25:29;;;;;;;31.05;20.08;;;;;;;1.72;79.64;99382.00;2496562;29;20058;-87
2024/03/01 01:26:43;;;;;;;26.65;19.65;;;;;;;1.75;79.49;99389.72;2496820;28;20069;-84
2024/03/01 01:27:56;;;;;;;29.70;20.85;;;;;;;1.79;79.52;99395.78;2489587;28;20047;-86
2024/03/01 01:29:11;;;;;;;30.17;19.92;;;;;;;1.80;79.63;99392.34;2487260;29;20051;-84
2024/03/01 01:30:24;;;;;;;31.23;18.80;;;;;;;1.84;79.68;99395.81;2461577;29;20247;-83
2024/03/01 01:31:39;;;;;;;29.45;18.75;;;;;;;1.85;79.32;99397.53;2491207;29;20119;-83
2024/03/01 01:32:52;;;;;;;26.20;19.55;;;;;;;1.87;79.82;99388.09;2496964;29;20055;-83
2024/03/01 01:34:07;;;;;;;26.83;18.73;;;;;;;1.88;79.46;99397.53;2489138;29;20132;-84
2024/03/01 01:35:20;;;;;;;25.60;19.17;;;;;;;1.92;79.47;99389.84;2489025;29;20398;-83
2024/03/01 01:36:36;;;;;;;25.63;19.98;;;;;;;1.95;79.64;99399.31;2493939;29;20043;-82
2024/03/01 01:37:49;;;;;;;24.48;19.98;;;;;;;1.98;79.44;99390.75;2493913;29;20047;-82
2024/03/01 01:39:05;;;;;;;30.25;18.65;;;;;;;2.00;79.53;99392.47;2497107;28;20146;-85
2024/03/01 01:40:18;;;;;;;24.27;19.85;;;;;;;2.03;79.25;99389.06;2479435;29;20126;-84
2024/03/01 01:41:33;;;;;;;27.10;19.48;;;;;;;2.05;79.24;99390.78;2487433;29;20052;-83
2024/03/01 01:42:50;;;;;;;24.83;17.45;;;;;;;2.08;79.38;99398.53;2487342;29;20476;-83
2024/03/01 01:44:05;;;;;;;23.05;17.05;;;;;;;2.11;79.48;99390.81;2487602;29;20055;-82
2024/03/01 01:45:18;;;;;;;27.83;22.33;;;;;;;2.13;79.44;99391.69;2479856;29;20051;-84
2024/03/01 01:46:33;;;;;;;28.50;19.60;;;;;;;2.17;79.13;99401.16;2491384;29;20126;-83
2024/03/01 01:47:48;;;;;;;28.75;19.77;;;;;;;2.20;79.27;99392.59;2497342;28;20428;-82
2024/03/01 01:49:02;;;;;;;26.13;18.95;;;;;;;2.24;79.04;99398.59;2498331;29;20063;-81
2024/03/01 01:50:17;;;;;;;25.92;19.00;;;;;;;2.26;79.64;99397.75;2501186;28;20043;-82
2024/03/01 01:51:31;;;;;;;26.85;19.30;;;;;;;2.30;79.32;99404.66;2497669;28;20048;-83
2024/03/01 01:52:46;;;;;;;30.85;20.52;;;;;;;2.33;79.18;99393.50;2484651;29;20055;-82
2024/03/01 01:54:01;;;;;;;27.05;20.67;;;;;;;2.35;79.15;99391.78;2484917;29;20075;-82
2024/03/01 01:55:15;;;;;;;27.30;21.45;;;;;;;2.39;79.10;99388.38;2484010;29;20086;-81
2024/03/01 01:56:30;;;;;;;27.05;19.60;;;;;;;2.45;79.22;99390.09;2484886;29;20059;-82
2024/03/01 01:57:44;;;;;;;26.88;20.00;;;;;;;2.47;79.28;99394.41;2484729;29;20051;-82
2024/03/01 01:58:58;;;;;;;39.22;21.23;;;;;;;2.50;79.22;99385.84;2484318;29;20055;-83
2024/03/01 02:00:13;;;;;;;28.42;19.42;;;;;;;2.50;79.03;99380.69;2484898;29;20063;-84
2024/03/01 02:01:28;;;;;;;30.83;20.95;;;;;;;2.50;79.11;99376.38;2485021;29;20060;-82
2024/03/01 02:02:41;;;;;;;27.75;21.15;;;;;;;2.51;79.05;99380.69;2485647;29;20069;-82
2024/03/01 02:03:57;;;;;;;27.55;18.95;;;;;;;2.52;78.99;99378.97;2491280;29;20523;-82
2024/03/01 02:05:10;;;;;;;24.80;18.92;;;;;;;2.55;79.20;99379.84;2492961;29;20586;-78
2024/03/01 02:06:25;;;;;;;27.33;19.23;;;;;;;2.58;78.97;99378.97;2485115;29;20103;-83
2024/03/01 02:07:38;;;;;;;24.70;17.52;;;;;;;2.60;79.04;99373.00;2488808;29;20062;-82
2024/03/01 02:08:54;;;;;;;26.48;19.65;;;;;;;2.62;79.08;99373.84;2494089;28;20058;-83
2024/03/01 02:10:16;;;;;;;27.38;20.60;;;;;;;2.64;79.03;99381.59;2486820;29;20052;-82
2024/03/01 02:11:30;;;;;;;24.45;19.58;;;;;;;2.64;78.91;99370.44;2484610;29;20406;-83
2024/03/01 02:12:57;;;;;;;27.45;19.75;;;;;;;2.62;78.92;99375.56;2485121;29;20054;-83
2024/03/01 02:14:11;;;;;;;27.65;20.10;;;;;;;2.58;78.80;99369.56;2484894;29;20142;-84
2024/03/01 02:15:25;;;;;;;26.65;19.33;;;;;;;2.55;78.57;99364.38;2486515;29;20051;-81
2024/03/01 02:16:40;;;;;;;27.55;18.48;;;;;;;2.52;78.61;99373.81;2490340;28;20107;-82
2024/03/01 02:17:54;;;;;;;25.45;18.77;;;;;;;2.46;78.71;99368.66;2484841;29;20063;-83
2024/03/01 02:19:14;;;;;;;25.27;18.00;;;;;;;2.43;78.50;99363.47;2484077;29;20051;-81
2024/03/01 02:20:29;;;;;;;23.35;17.88;;;;;;;2.39;78.60;99366.06;2485009;29;20056;-82
2024/03/01 02:21:49;;;;;;;27.00;17.33;;;;;;;2.35;78.50;99369.50;2484935;29;20050;-82
2024/03/01 02:23:06;;;;;;;27.83;18.35;;;;;;;2.33;78.58;99370.34;2484396;29;20142;-83
2024/03/01 02:24:22;;;;;;;21.48;17.48;;;;;;;2.30;78.67;99358.31;2486219;29;20134;-83
2024/03/01 02:25:36;;;;;;;23.50;18.77;;;;;;;2.30;78.56;99358.31;2490500;29;20043;-84
2024/03/01 02:26:54;;;;;;;27.98;19.13;;;;;;;2.32;78.86;99368.59;2484558;29;20052;-83
2024/03/01 02:28:07;;;;;;;29.40;18.77;;;;;;;2.33;78.96;99362.63;2484826;29;20054;-83
2024/03/01 02:29:22;;;;;;;29.83;19.98;;;;;;;2.36;78.78;99357.47;2477046;29;20051;-81
2024/03/01 02:30:35;;;;;;;23.95;17.50;;;;;;;2.39;78.49;99365.19;2485003;29;20048;-82
2024/03/01 02:31:50;;;;;;;28.88;18.30;;;;;;;2.40;78.93;99361.75;2484507;29;20126;-84
2024/03/01 02:33:03;;;;;;;29.02;20.42;;;;;;;2.39;78.71;99360.06;2484603;29;20062;-81
2024/03/01 02:34:18;;;;;;;31.17;19.10;;;;;;;2.39;78.88;99360.06;2485485;29;20138;-80
2024/03/01 02:35:31;;;;;;;30.35;18.92;;;;;;;2.38;79.01;99361.78;2490863;28;20044;-82
2024/03/01 02:36:46;;;;;;;32.13;19.95;;;;;;;2.40;78.96;99354.91;2484996;29;20164;-81
2024/03/01 02:37:59;;;;;;;27.80;19.15;;;;;;;2.42;78.94;99354.91;2484859;29;20052;-81
2024/03/01 02:39:17;;;;;;;25.33;19.65;;;;;;;2.44;79.01;99354.91;2484515;29;20046;-80
2024/03/01 02:40:32;;;;;;;29.10;19.63;;;;;;;2.48;79.11;99351.47;2491428;29;20047;-81
2024/03/01 02:41:47;;;;;;;31.17;20.98;;;;;;;2.50;79.42;99345.47;2484827;29;20062;-82
2024/03/01 02:43:01;;;;;;;30.13;20.90;;;;;;;2.55;79.37;99346.34;2484438;29;20055;-83
2024/03/01 02:44:15;;;;;;;26.70;19.88;;;;;;;2.58;79.43;99336.09;2484391;29;20058;-83
2024/03/01 02:45:29;;;;;;;25.88;19.27;;;;;;;2.61;79.47;99340.38;2484597;29;20691;-84
2024/03/01 02:46:43;;;;;;;26.33;20.05;;;;;;;2.65;79.45;99339.53;2485526;29;20056;-82
2024/03/01 02:47:56;;;;;;;22.98;17.38;;;;;;;2.68;79.36;99333.50;2485141;29;20050;-83
2024/03/01 02:49:11;;;;;;;28.08;20.60;;;;;;;2.70;79.52;99329.22;2492735;29;20508;-82
2024/03/01 02:50:24;;;;;;;29.10;18.90;;;;;;;2.73;79.57;99329.22;2489995;29;20051;-82
2024/03/01 02:51:40;;;;;;;26.00;17.80;;;;;;;2.74;79.56;99329.25;2489852;28;20122;-82
2024/03/01 02:52:54;;;;;;;30.45;20.73;;;;;;;2.75;79.51;99336.09;2490933;29;20090;-82
2024/03/01 02:54:08;;;;;;;22.00;18.42;;;;;;;2.76;79.40;99332.69;2504360;29;20031;-80
2024/03/01 02:55:22;;;;;;;24.20;17.55;;;;;;;2.76;79.59;99331.81;2489493;29;20531;-83
2024/03/01 02:56:37;;;;;;;30.83;17.65;;;;;;;2.79;79.37;99326.69;2490678;29;20051;-81
2024/03/01 02:57:52;;;;;;;27.10;19.80;;;;;;;2.81;79.41;99327.53;2484444;29;20048;-82
2024/03/01 02:59:06;;;;;;;29.63;18.92;;;;;;;2.82;79.35;99329.25;2484005;29;20059;-82
2024/03/01 03:00:20;;;;;;;22.35;18.60;;;;;;;2.84;79.39;99332.72;2484427;29;20063;-83
2024/03/01 03:01:35;;;;;;;25.73;17.50;;;;;;;2.85;79.26;99329.25;2485129;29;20138;-83
2024/03/01 03:02:49;;;;;;;29.30;19.70;;;;;;;2.85;79.39;99326.69;2484033;29;20433;-83
2024/03/01 03:04:03;;;;;;;28.58;20.08;;;;;;;2.85;79.17;99331.84;2484996;29;20130;-84
2024/03/01 03:05:18;;;;;;;23.40;17.95;;;;;;;2.86;79.18;99323.25;2484329;29;20048;-83
2024/03/01 03:06:32;;;;;;;26.50;16.73;;;;;;;2.86;79.15;99325.81;2484321;29;20048;-83
2024/03/01 03:07:46;;;;;;;25.60;17.45;;;;;;;2.86;79.12;99327.53;2488683;29;20453;-83
2024/03/01 03:09:01;;;;;;;23.35;17.17;;;;;;;2.87;79.10;99330.13;2487154;28;20134;-84
2024/03/01 03:10:14;;;;;;;28.27;19.23;;;;;;;2.88;79.12;99330.97;2484125;29;20059;-84
2024/03/01 03:11:29;;;;;;;25.73;19.55;;;;;;;2.87;79.14;99330.13;2484239;29;20417;-81
2024/03/01 03:12:44;;;;;;;26.35;17.33;;;;;;;2.89;79.12;99328.41;2484689;29;20058;-83
2024/03/01 03:13:58;;;;;;;24.30;17.45;;;;;;;2.89;79.47;99330.09;2485865;29;20055;-82
2024/03/01 03:15:13;;;;;;;29.83;18.98;;;;;;;2.90;79.28;99330.13;2484980;29;20570;-84
2024/03/01 03:16:27;;;;;;;26.55;17.48;;;;;;;2.90;79.13;99329.28;2485870;29;20047;-83
2024/03/01 03:17:41;;;;;;;24.58;17.48;;;;;;;2.90;79.18;99330.13;2485930;29;20457;-84
2024/03/01 03:18:55;;;;;;;26.90;17.30;;;;;;;2.91;79.23;99325.81;2485068;29;20130;-83
2024/03/01 03:20:14;;;;;;;24.35;18.48;;;;;;;2.92;79.15;99331.00;2484773;29;20058;-83
2024/03/01 03:21:28;;;;;;;21.77;16.98;;;;;;;2.93;79.12;99334.44;2487604;29;20064;-82
2024/03/01 03:22:44;;;;;;;25.13;17.20;;;;;;;2.93;78.98;99339.56;2491264;28;20077;-83
2024/03/01 03:23:59;;;;;;;24.77;20.15;;;;;;;2.92;79.13;99340.41;2485026;28;20054;-84
2024/03/01 03:25:13;;;;;;;23.77;17.13;;;;;;;2.91;78.81;99349.88;2485857;29;20394;-82
2024/03/01 03:26:28;;;;;;;28.13;17.98;;;;;;;2.89;79.06;99353.31;2485177;29;20051;-83
2024/03/01 03:27:41;;;;;;;26.05;18.02;;;;;;;2.84;79.02;99346.44;2483956;29;20040;-82
2024/03/01 03:28:57;;;;;;;26.13;18.35;;;;;;;2.82;79.21;99355.03;2484658;29;20512;-81
2024/03/01 03:30:12;;;;;;;23.92;17.20;;;;;;;2.82;79.18;99353.31;2485251;29;20052;-81
2024/03/01 03:31:26;;;;;;;28.17;18.73;;;;;;;2.85;79.28;99355.03;2476797;29;20501;-82
2024/03/01 03:32:40;;;;;;;24.38;17.20;;;;;;;2.86;79.51;99359.31;2485422;29;20051;-82
2024/03/01 03:33:55;;;;;;;23.17;18.02;;;;;;;2.89;79.38;99350.72;2485629;29;20103;-81
2024/03/01 03:35:08;;;;;;;28.02;19.27;;;;;;;2.91;79.15;99356.75;2485560;29;20046;-84
2024/03/01 03:36:22;;;;;;;29.92;19.02;;;;;;;2.91;79.29;99360.19;2487156;29;20497;-84
2024/03/01 03:37:36;;;;;;;24.00;18.52;;;;;;;2.92;79.28;99356.75;2492468;28;20445;-84
2024/03/01 03:38:50;;;;;;;26.45;17.98;;;;;;;2.94;79.28;99360.19;2484733;28;20051;-82
2024/03/01 03:40:13;;;;;;;25.42;18.55;;;;;;;2.94;79.37;99362.75;2485633;29;20056;-83
2024/03/01 03:41:27;;;;;;;25.77;18.30;;;;;;;2.96;79.53;99358.47;2478480;29;20554;-82
2024/03/01 03:42:41;;;;;;;26.70;16.73;;;;;;;2.98;79.45;99356.75;2485965;29;20044;-82
2024/03/01 03:43:57;;;;;;;24.90;18.17;;;;;;;3.02;79.52;99355.91;2485549;29;20071;-81
2024/03/01 03:45:11;;;;;;;24.92;18.52;;;;;;;3.04;79.37;99367.06;2486029;29;20048;-82
2024/03/01 03:46:25;;;;;;;28.42;20.15;;;;;;;3.06;79.33;99364.50;2485255;29;20051;-83
2024/03/01 03:47:39;;;;;;;24.13;16.25;;;;;;;3.10;79.36;99367.94;2485411;28;20048;-82
2024/03/01 03:48:53;;;;;;;23.33;18.15;;;;;;;3.11;79.23;99372.25;2485887;29;20139;-82
2024/03/01 03:50:08;;;;;;;26.00;17.05;;;;;;;3.09;79.16;99366.22;2486240;29;20051;-82
2024/03/01 03:51:26;;;;;;;23.17;19.65;;;;;;;3.08;79.23;99369.66;2485641;29;20426;-83
2024/03/01 03:52:39;;;;;;;24.92;18.98;;;;;;;3.07;79.11;99373.94;2486446;29;20048;-82
2024/03/01 03:53:54;;;;;;;24.25;18.60;;;;;;;3.05;79.02;99370.53;2486272;29;20093;-82
2024/03/01 03:55:07;;;;;;;38.33;19.05;;;;;;;3.01;78.93;99371.38;2493039;28;20063;-82
2024/03/01 03:56:21;;;;;;;25.40;18.67;;;;;;;2.97;78.84;99378.25;2486963;29;20130;-83
2024/03/01 03:57:35;;;;;;;24.33;18.08;;;;;;;2.94;78.95;99383.38;2486565;29;20098;-82
2024/03/01 03:58:50;;;;;;;25.70;17.50;;;;;;;2.93;78.85;99393.69;2495672;28;20592;-82
2024/03/01 04:00:09;;;;;;;25.38;16.52;;;;;;;2.90;78.99;99406.56;2494800;28;20048;-84
2024/03/01 04:01:23;;;;;;;23.10;17.23;;;;;;;2.88;78.88;99393.69;2484184;29;20056;-83
2024/03/01 04:02:37;;;;;;;28.05;18.67;;;;;;;2.87;79.34;99384.25;2483395;29;20417;-83
2024/03/01 04:03:51;;;;;;;30.80;21.08;;;;;;;2.87;79.02;99383.38;2483427;29;20134;-83
2024/03/01 04:05:06;;;;;;;26.45;18.92;;;;;;;2.87;78.97;99386.81;2483261;29;20517;-82
2024/03/01 04:06:20;;;;;;;26.33;18.85;;;;;;;2.88;79.18;99387.66;2483741;29;20048;-82
2024/03/01 04:07:34;;;;;;;33.63;24.08;;;;;;;2.90;79.31;99396.28;2483504;29;20063;-81
2024/03/01 04:08:48;;;;;;;29.15;19.58;;;;;;;2.93;79.25;99391.97;2485491;29;20048;-82
2024/03/01 04:10:05;;;;;;;24.15;18.20;;;;;;;2.94;79.62;99393.69;2493200;29;20047;-83
2024/03/01 04:11:20;;;;;;;28.70;20.58;;;;;;;2.94;79.56;99398.84;2487220;28;20044;-82
2024/03/01 04:12:34;;;;;;;34.70;21.65;;;;;;;2.97;79.54;99400.56;2486741;29;20059;-82
2024/03/01 04:13:48;;;;;;;29.13;22.70;;;;;;;2.99;79.69;99399.69;2486956;29;20126;-84
2024/03/01 04:15:04;;;;;;;34.30;20.88;;;;;;;3.02;79.77;99397.16;2486193;29;20051;-81
2024/03/01 04:16:20;;;;;;;32.70;22.55;;;;;;;3.04;79.80;99390.25;2486487;29;20047;-82
2024/03/01 04:17:34;;;;;;;26.98;19.05;;;;;;;3.08;79.70;99398.03;2486911;29;20134;-82
2024/03/01 04:18:48;;;;;;;28.65;20.48;;;;;;;3.09;79.86;99407.47;2485847;29;20052;-84
2024/03/01 04:20:03;;;;;;;28.00;20.17;;;;;;;3.10;79.95;99416.91;2487087;29;20051;-82
2024/03/01 04:21:17;;;;;;;31.98;18.35;;;;;;;3.11;79.75;99416.06;2486413;29;20059;-83
2024/03/01 04:22:30;;;;;;;30.73;21.70;;;;;;;3.11;79.82;99418.66;2493617;28;20424;-84
2024/03/01 04:23:45;;;;;;;28.33;19.52;;;;;;;3.12;79.68;99413.47;2485447;29;20078;-84
2024/03/01 04:24:58;;;;;;;40.10;28.05;;;;;;;3.11;79.76;99414.34;2491444;29;20175;-85
2024/03/01 04:26:13;;;;;;;33.60;24.55;;;;;;;3.14;79.91;99422.06;2488165;28;20150;-84
2024/03/01 04:27:27;;;;;;;32.63;22.80;;;;;;;3.18;80.03;99407.50;2485039;29;20048;-85
2024/03/01 04:28:41;;;;;;;33.17;20.30;;;;;;;3.18;79.90;99405.75;2485893;29;20429;-83
2024/03/01 04:29:55;;;;;;;29.50;18.85;;;;;;;3.17;79.78;99409.19;2486016;29;20051;-84
2024/03/01 04:31:09;;;;;;;29.60;19.67;;;;;;;3.16;79.95;99422.94;2492889;28;20408;-83
2024/03/01 04:32:24;;;;;;;25.90;19.42;;;;;;;3.16;79.89;99411.78;2486967;29;20117;-84
2024/03/01 04:33:39;;;;;;;23.83;19.25;;;;;;;3.17;79.89;99416.06;2486103;29;20129;-86
2024/03/01 04:34:54;;;;;;;34.15;24.95;;;;;;;3.18;79.94;99418.66;2484909;29;20064;-84
2024/03/01 04:36:09;;;;;;;30.52;21.90;;;;;;;3.20;79.89;99418.63;2485731;29;20044;-85
2024/03/01 04:37:22;;;;;;;40.70;28.50;;;;;;;3.24;80.19;99422.97;2485837;29;20051;-82
2024/03/01 04:38:39;;;;;;;39.25;25.58;;;;;;;3.27;80.15;99423.81;2488764;29;20427;-82
2024/03/01 04:39:53;;;;;;;30.13;22.95;;;;;;;3.27;80.01;99413.50;2490115;28;20047;-82
2024/03/01 04:41:15;;;;;;;34.45;22.40;;;;;;;3.28;80.13;99419.53;2486383;29;20073;-84
2024/03/01 04:42:28;;;;;;;27.80;18.95;;;;;;;3.28;79.97;99414.38;2486004;29;20062;-84
2024/03/01 04:43:43;;;;;;;37.42;26.80;;;;;;;3.28;80.17;99419.53;2489681;29;20071;-84
2024/03/01 04:44:56;;;;;;;41.22;28.17;;;;;;;3.30;80.20;99424.69;2489956;29;20568;-82
2024/03/01 04:46:11;;;;;;;37.95;25.73;;;;;;;3.33;80.25;99422.97;2486320;29;20047;-84
2024/03/01 04:47:25;;;;;;;41.88;27.52;;;;;;;3.36;80.32;99422.97;2486893;29;20040;-82
2024/03/01 04:48:40;;;;;;;36.22;23.00;;;;;;;3.38;80.34;99423.84;2486837;29;20094;-85
2024/03/01 04:49:53;;;;;;;37.97;25.15;;;;;;;3.42;80.30;99427.28;2491805;29;20058;-84
2024/03/01 04:51:12;;;;;;;37.88;24.98;;;;;;;3.44;80.67;99416.09;2496162;28;20055;-83
2024/03/01 04:52:26;;;;;;;28.42;23.02;;;;;;;3.47;80.40;99415.25;2487033;28;20044;-84
2024/03/01 04:53:40;;;;;;;42.60;29.17;;;;;;;3.50;80.52;99430.72;2491598;29;20044;-81
2024/03/01 04:54:54;;;;;;;39.08;29.80;;;;;;;3.52;80.53;99423.00;2490564;29;20079;-83
2024/03/01 04:56:09;;;;;;;44.67;29.73;;;;;;;3.56;80.71;99420.38;2484519;29;20048;-83
2024/03/01 04:57:22;;;;;;;44.25;29.77;;;;;;;3.60;80.83;99429.00;2484145;29;20134;-84
2024/03/01 04:58:37;;;;;;;40.42;27.90;;;;;;;3.61;80.64;99428.13;2483899;29;20107;-83
2024/03/01 04:59:50;;;;;;;48.92;30.15;;;;;;;3.63;80.43;99422.09;2488657;29;20051;-83
2024/03/01 05:01:05;;;;;;;41.15;29.55;;;;;;;3.65;80.78;99420.41;2486361;29;20126;-83
2024/03/01 05:02:18;;;;;;;42.65;30.55;;;;;;;3.69;80.82;99426.41;2492576;29;20678;-83
2024/03/01 05:03:36;;;;;;;39.30;27.60;;;;;;;3.72;80.69;99426.44;2487419;29;20044;-83
2024/03/01 05:04:49;;;;;;;38.85;25.45;;;;;;;3.75;80.74;99421.25;2493756;29;20079;-83
2024/03/01 05:06:04;;;;;;;40.90;27.00;;;;;;;3.79;80.93;99422.94;2484258;29;20047;-82
2024/03/01 05:07:18;;;;;;;37.72;26.40;;;;;;;3.82;80.96;99427.25;2490730;28;20079;-83
2024/03/01 05:08:33;;;;;;;36.45;24.67;;;;;;;3.84;80.79;99430.69;2483409;29;20086;-82
2024/03/01 05:09:46;;;;;;;33.25;23.23;;;;;;;3.84;80.93;99428.97;2483354;29;20473;-83
2024/03/01 05:11:01;;;;;;;36.75;24.35;;;;;;;3.84;80.80;99421.22;2488782;28;20150;-82
2024/03/01 05:12:14;;;;;;;36.17;22.45;;;;;;;3.87;80.76;99422.94;2485805;28;20054;-82
2024/03/01 05:13:29;;;;;;;35.00;23.65;;;;;;;3.88;80.92;99422.09;2483742;29;20047;-84
2024/03/01 05:14:42;;;;;;;39.58;22.73;;;;;;;3.88;80.87;99425.53;2483185;29;20043;-83
2024/03/01 05:15:56;;;;;;;39.40;25.80;;;;;;;3.89;80.87;99424.66;2483478;29;20070;-81
2024/03/01 05:17:11;;;;;;;28.83;22.27;;;;;;;3.89;80.78;99435.00;2491133;29;20050;-82
2024/03/01 05:18:26;;;;;;;34.15;21.98;;;;;;;3.89;80.86;99422.09;2492340;29;20051;-84
2024/03/01 05:19:41;;;;;;;38.90;22.63;;;;;;;3.91;80.65;99425.53;2486617;29;20046;-82
2024/03/01 05:20:55;;;;;;;31.73;22.58;;;;;;;3.90;80.63;99423.81;2489068;29;20052;-83
2024/03/01 05:22:12;;;;;;;29.80;20.98;;;;;;;3.92;80.66;99427.28;2490791;29;20489;-83
2024/03/01 05:23:26;;;;;;;31.02;21.30;;;;;;;3.92;80.66;99421.22;2484345;29;20043;-82
2024/03/01 05:24:40;;;;;;;30.45;23.17;;;;;;;3.93;80.64;99422.97;2483548;29;20502;-82
2024/03/01 05:25:54;;;;;;;30.90;21.95;;;;;;;3.95;80.59;99418.66;2484043;29;20058;-80
2024/03/01 05:27:11;;;;;;;35.38;26.45;;;;;;;3.97;80.52;99423.81;2483855;29;20051;-82
2024/03/01 05:28:25;;;;;;;29.73;20.05;;;;;;;4.00;80.50;99428.94;2491688;29;20078;-83
2024/03/01 05:29:39;;;;;;;32.50;22.45;;;;;;;4.01;80.38;99428.97;2485153;29;20051;-84
2024/03/01 05:30:53;;;;;;;32.33;21.48;;;;;;;4.03;80.40;99427.25;2483392;29;20044;-83
2024/03/01 05:32:07;;;;;;;32.05;22.10;;;;;;;4.06;80.35;99426.38;2490282;29;20059;-82
2024/03/01 05:33:21;;;;;;;34.30;22.80;;;;;;;4.07;80.38;99428.94;2485111;29;20497;-82
2024/03/01 05:34:35;;;;;;;33.15;23.98;;;;;;;4.09;80.37;99421.22;2483700;29;20067;-83
2024/03/01 05:35:52;;;;;;;33.67;23.08;;;;;;;4.09;80.25;99421.22;2483570;29;20339;-81
2024/03/01 05:37:06;;;;;;;28.65;23.50;;;;;;;4.09;80.22;99426.38;2483449;29;20063;-82
2024/03/01 05:38:21;;;;;;;29.90;23.95;;;;;;;4.10;80.23;99423.75;2483684;29;20421;-81
2024/03/01 05:39:34;;;;;;;34.30;22.48;;;;;;;4.12;80.12;99424.63;2483085;29;20449;-82
2024/03/01 05:40:49;;;;;;;43.10;24.70;;;;;;;4.12;80.00;99423.78;2487404;29;20047;-82
2024/03/01 05:42:02;;;;;;;31.73;23.15;;;;;;;4.09;79.89;99421.22;2487527;29;20048;-81
2024/03/01 05:43:17;;;;;;;39.20;25.75;;;;;;;4.06;79.55;99416.06;2482819;29;20051;-82
2024/03/01 05:44:30;;;;;;;31.73;23.73;;;;;;;4.02;79.79;99417.75;2484548;29;20047;-82
2024/03/01 05:45:45;;;;;;;53.42;27.90;;;;;;;4.02;79.74;99419.50;2485235;29;20078;-82